Time;durP1;ratioP1;P1;durP2;ratioP2;P2;SDS_P1;SDS_P2;PMS_P1;PMS_P2;Temp;Humidity;BMP_temperature;BMP_pressure;BME280_temperature;BME280_humidity;BME280_pressure;Samples;Min_cycle;Max_cycle;Signal;HPM_P1;HPM_P2
2021/09/24 00:01:08;;;;;;;17.87;3.60;;;;;;;13.59;nan;99944.75;5073854;28;20587;-71
2021/09/24 00:03:34;;;;;;;19.27;3.87;;;;;;;13.63;nan;99963.16;5055357;28;20179;-72
2021/09/24 00:05:59;;;;;;;17.33;3.63;;;;;;;13.45;nan;99980.72;5073364;28;20191;-71
2021/09/24 00:08:25;;;;;;;22.93;3.97;;;;;;;13.48;nan;99966.22;5073440;28;20175;-73
2021/09/24 00:10:51;;;;;;;25.07;3.80;;;;;;;13.41;nan;99942.56;5073062;28;20174;-72
2021/09/24 00:13:16;;;;;;;18.80;4.00;;;;;;;13.53;nan;99969.38;5055147;28;20540;-72
2021/09/24 00:15:41;;;;;;;18.83;3.37;;;;;;;13.44;nan;99979.00;5072840;28;20231;-73
2021/09/24 00:18:07;;;;;;;21.40;3.67;;;;;;;13.66;nan;99978.16;5056423;28;20175;-73
2021/09/24 00:20:34;;;;;;;23.90;3.63;;;;;;;13.59;nan;99982.31;5058565;28;20245;-72
2021/09/24 00:22:59;;;;;;;18.33;3.20;;;;;;;13.54;nan;99981.81;5058798;28;20177;-72
2021/09/24 00:25:24;;;;;;;21.57;4.50;;;;;;;13.50;nan;99980.34;5058951;28;20195;-73
2021/09/24 00:27:50;;;;;;;18.70;4.13;;;;;;;13.43;nan;99980.84;5059584;28;20183;-72
2021/09/24 00:30:15;;;;;;;19.40;4.13;;;;;;;13.51;nan;99952.56;5077282;28;20617;-72
2021/09/24 00:32:40;;;;;;;20.63;3.77;;;;;;;13.57;nan;99973.53;5076554;28;20183;-73
2021/09/24 00:35:06;;;;;;;20.80;4.03;;;;;;;13.45;nan;99976.22;5058858;28;20236;-73
2021/09/24 00:37:32;;;;;;;16.83;3.57;;;;;;;13.44;nan;100003.97;5076488;28;20556;-73
2021/09/24 00:39:57;;;;;;;19.57;3.83;;;;;;;13.54;nan;99993.38;5058062;28;20225;-73
2021/09/24 00:42:22;;;;;;;21.33;3.80;;;;;;;13.48;nan;99993.03;5058126;28;20179;-73
2021/09/24 00:44:49;;;;;;;25.50;3.30;;;;;;;13.26;nan;100005.38;5058898;28;20213;-73
2021/09/24 00:47:15;;;;;;;21.83;3.37;;;;;;;13.46;nan;99982.41;5079443;28;20198;-73
2021/09/24 00:49:40;;;;;;;20.27;3.80;;;;;;;13.43;nan;99991.56;5059893;28;20171;-72
2021/09/24 00:52:06;;;;;;;20.37;3.43;;;;;;;13.34;nan;100000.28;5057695;28;20186;-73
2021/09/24 00:54:32;;;;;;;20.23;3.80;;;;;;;13.50;nan;99999.97;5057972;28;20658;-72
2021/09/24 00:56:57;;;;;;;20.30;4.43;;;;;;;13.38;nan;100001.78;5058105;28;20206;-73
2021/09/24 00:59:24;;;;;;;17.03;4.17;;;;;;;13.45;nan;100003.00;5057721;28;20253;-73
2021/09/24 01:01:49;;;;;;;19.20;4.43;;;;;;;13.45;nan;100010.19;5057607;28;20175;-73
2021/09/24 01:04:15;;;;;;;28.90;3.70;;;;;;;13.57;nan;100016.41;5057987;28;20652;-74
2021/09/24 01:06:40;;;;;;;20.27;3.90;;;;;;;13.45;nan;100021.78;5075520;28;20195;-74
2021/09/24 01:09:05;;;;;;;24.83;4.63;;;;;;;13.51;nan;100023.13;5075507;28;20213;-73
2021/09/24 01:11:31;;;;;;;22.00;3.77;;;;;;;13.40;nan;100037.38;5075622;28;20235;-73
2021/09/24 01:13:56;;;;;;;26.03;4.30;;;;;;;13.49;nan;100029.56;5075458;28;20686;-72
2021/09/24 01:16:21;;;;;;;16.03;3.30;;;;;;;13.40;nan;100026.63;5075508;28;20194;-73
2021/09/24 01:18:47;;;;;;;24.67;3.83;;;;;;;13.52;nan;100032.00;5076311;28;20182;-73
2021/09/24 01:21:12;;;;;;;21.80;4.00;;;;;;;13.42;nan;100029.19;5058708;28;20273;-73
2021/09/24 01:23:38;;;;;;;20.07;3.50;;;;;;;13.43;nan;100029.09;5042790;28;20210;-73
2021/09/24 01:26:03;;;;;;;24.40;3.97;;;;;;;13.47;nan;100039.56;5059540;28;20202;-72
2021/09/24 01:28:28;;;;;;;20.13;3.90;;;;;;;13.41;nan;100028.34;5058525;28;20179;-74
2021/09/24 01:30:54;;;;;;;25.23;3.03;;;;;;;13.38;nan;100033.94;5057241;28;20158;-73
2021/09/24 01:33:19;;;;;;;15.33;3.40;;;;;;;13.36;nan;100038.53;5040355;28;20178;-75
2021/09/24 01:35:44;;;;;;;20.73;3.33;;;;;;;13.41;nan;100033.72;5075121;28;20275;-74
2021/09/24 01:38:10;;;;;;;20.23;3.37;;;;;;;13.42;nan;100048.81;5057308;28;20170;-73
2021/09/24 01:40:35;;;;;;;18.47;3.27;;;;;;;13.37;nan;100047.44;5074962;28;20198;-73
2021/09/24 01:43:00;;;;;;;17.10;3.00;;;;;;;13.42;nan;100053.31;5074690;28;20185;-74
2021/09/24 01:45:25;;;;;;;18.33;4.33;;;;;;;13.37;nan;100053.66;5057464;28;20195;-73
2021/09/24 01:47:51;;;;;;;14.70;3.30;;;;;;;13.47;nan;100059.19;5057742;28;20182;-74
2021/09/24 01:50:16;;;;;;;18.17;2.90;;;;;;;13.51;nan;100055.28;5075329;28;20171;-73
2021/09/24 01:52:42;;;;;;;16.27;3.47;;;;;;;13.50;nan;100055.41;5057010;28;20175;-73
2021/09/24 01:55:08;;;;;;;22.03;3.77;;;;;;;13.48;nan;100057.34;5057229;28;20529;-73
2021/09/24 01:57:37;;;;;;;14.30;3.23;;;;;;;13.56;nan;100071.00;5056820;28;20258;-73
2021/09/24 02:00:08;;;;;;;22.93;3.03;;;;;;;13.60;nan;100080.53;5039873;28;20261;-72
2021/09/24 02:02:33;;;;;;;16.57;3.00;;;;;;;13.40;nan;100079.41;5056692;28;20636;-72
2021/09/24 02:04:58;;;;;;;25.60;3.00;;;;;;;13.36;nan;100093.97;5074371;28;20259;-73
2021/09/24 02:07:23;;;;;;;15.53;2.87;;;;;;;13.44;nan;100081.72;5074625;28;20226;-73
2021/09/24 02:09:49;;;;;;;14.80;3.10;;;;;;;13.29;nan;100101.63;5074552;28;20266;-73
2021/09/24 02:12:14;;;;;;;23.23;3.40;;;;;;;13.52;nan;100099.03;5074688;28;20181;-73
2021/09/24 02:14:39;;;;;;;13.17;2.80;;;;;;;13.37;nan;100084.97;5074645;28;20174;-72
2021/09/24 02:17:05;;;;;;;22.23;3.67;;;;;;;13.51;nan;100110.72;5057173;28;20227;-72
2021/09/24 02:19:31;;;;;;;15.83;3.20;;;;;;;13.54;nan;100097.09;5056739;28;20199;-72
2021/09/24 02:21:57;;;;;;;18.43;2.83;;;;;;;13.40;nan;100099.00;5074877;28;20278;-72
2021/09/24 02:24:23;;;;;;;16.57;3.13;;;;;;;13.41;nan;100127.53;5056940;28;20228;-73
2021/09/24 02:26:48;;;;;;;20.77;3.33;;;;;;;13.39;nan;100110.72;5056603;28;20191;-72
2021/09/24 02:29:14;;;;;;;25.97;3.57;;;;;;;13.56;nan;100116.59;5056760;28;20575;-72
2021/09/24 02:31:40;;;;;;;14.83;3.20;;;;;;;13.55;nan;100123.78;5074959;28;20174;-73
2021/09/24 02:34:05;;;;;;;13.73;2.80;;;;;;;13.53;nan;100123.03;5040769;28;20262;-72
2021/09/24 02:36:30;;;;;;;9.77;2.47;;;;;;;13.54;nan;100126.59;5075217;28;20638;-72
2021/09/24 02:38:56;;;;;;;18.27;3.17;;;;;;;13.51;nan;100148.25;5056636;28;20192;-71
2021/09/24 02:41:21;;;;;;;16.73;3.20;;;;;;;13.47;nan;100139.59;5073737;28;20212;-72
2021/09/24 02:43:46;;;;;;;16.30;3.10;;;;;;;13.47;nan;100150.31;5073949;28;20171;-73
2021/09/24 02:46:12;;;;;;;16.03;2.90;;;;;;;13.52;nan;100140.09;5055878;28;20195;-72
2021/09/24 02:48:37;;;;;;;16.20;2.77;;;;;;;13.42;nan;100145.31;5056101;28;20171;-72
2021/09/24 02:51:02;;;;;;;16.17;3.13;;;;;;;13.47;nan;100168.22;5056248;28;20167;-72
2021/09/24 02:53:27;;;;;;;17.33;3.10;;;;;;;13.44;nan;100167.50;5056932;28;20171;-72
2021/09/24 02:55:53;;;;;;;19.57;3.10;;;;;;;13.40;nan;100157.13;5057342;28;20216;-72
2021/09/24 02:58:18;;;;;;;15.17;2.97;;;;;;;13.34;nan;100165.59;5074157;28;20197;-72
2021/09/24 03:00:43;;;;;;;12.07;3.20;;;;;;;13.41;nan;100157.00;5074293;28;20191;-72
2021/09/24 03:03:09;;;;;;;15.40;3.23;;;;;;;13.39;nan;100167.00;5074749;28;20587;-72
2021/09/24 03:05:35;;;;;;;18.37;3.63;;;;;;;13.48;nan;100159.22;5056318;28;20218;-72
2021/09/24 03:08:02;;;;;;;15.27;2.80;;;;;;;13.54;nan;100167.66;5056809;28;20173;-71
2021/09/24 03:10:27;;;;;;;14.27;2.77;;;;;;;13.52;nan;100156.19;5039550;28;20529;-72
2021/09/24 03:12:53;;;;;;;13.67;2.33;;;;;;;13.57;nan;100164.72;5056215;28;20171;-72
2021/09/24 03:15:18;;;;;;;16.23;2.80;;;;;;;13.58;nan;100154.88;5074138;28;20252;-72
2021/09/24 03:17:43;;;;;;;17.33;2.63;;;;;;;13.65;nan;100158.78;5055947;28;20171;-72
2021/09/24 03:20:09;;;;;;;14.40;2.73;;;;;;;13.56;nan;100183.63;5056514;28;20225;-72
2021/09/24 03:22:35;;;;;;;13.73;3.50;;;;;;;13.34;nan;100190.56;5056545;28;20232;-72
2021/09/24 03:25:00;;;;;;;15.30;2.93;;;;;;;12.97;nan;100176.31;5074520;28;20175;-72
2021/09/24 03:27:27;;;;;;;15.77;3.23;;;;;;;12.95;nan;100188.97;5055811;28;20190;-73
2021/09/24 03:29:52;;;;;;;18.03;3.93;;;;;;;12.87;nan;100198.53;5074284;28;20575;-72
2021/09/24 03:32:18;;;;;;;19.37;3.37;;;;;;;12.99;nan;100195.81;5074311;28;20266;-73
2021/09/24 03:34:45;;;;;;;15.43;3.10;;;;;;;13.03;nan;100193.81;5056632;28;20534;-72
2021/09/24 03:37:11;;;;;;;15.10;3.23;;;;;;;13.00;nan;100189.50;5073696;28;20199;-72
2021/09/24 03:39:36;;;;;;;17.70;2.87;;;;;;;13.01;nan;100212.66;5039136;28;20285;-72
2021/09/24 03:42:01;;;;;;;18.70;2.30;;;;;;;12.96;nan;100203.22;5056162;28;20284;-72
2021/09/24 03:44:27;;;;;;;19.23;3.90;;;;;;;12.89;nan;100207.31;5073970;28;20178;-72
2021/09/24 03:46:52;;;;;;;17.23;2.50;;;;;;;12.84;nan;100205.84;5055527;28;20199;-72
2021/09/24 03:49:17;;;;;;;13.70;2.70;;;;;;;12.93;nan;100214.16;5073294;28;20579;-72
2021/09/24 03:51:42;;;;;;;14.83;2.97;;;;;;;13.02;nan;100209.00;5073882;28;20194;-73
2021/09/24 03:54:08;;;;;;;15.97;2.97;;;;;;;13.08;nan;100211.25;5076690;28;20233;-72
2021/09/24 03:56:34;;;;;;;14.20;2.53;;;;;;;13.10;nan;100217.34;5058865;28;20202;-72
2021/09/24 03:58:59;;;;;;;18.00;3.13;;;;;;;13.21;nan;100213.03;5058809;28;20643;-73
2021/09/24 04:01:25;;;;;;;12.93;2.30;;;;;;;13.18;nan;100214.13;5059126;28;20175;-73
2021/09/24 04:03:50;;;;;;;23.93;3.17;;;;;;;13.10;nan;100206.63;5077023;28;20178;-73
2021/09/24 04:06:15;;;;;;;11.57;2.30;;;;;;;13.23;nan;100221.81;5058894;28;20191;-73
2021/09/24 04:08:41;;;;;;;17.23;3.13;;;;;;;13.19;nan;100220.34;5077002;28;20167;-72
2021/09/24 04:11:06;;;;;;;13.10;2.87;;;;;;;13.24;nan;100218.19;5058954;28;20171;-72
2021/09/24 04:13:31;;;;;;;12.47;2.87;;;;;;;13.24;nan;100219.03;5058672;28;20175;-72
2021/09/24 04:15:57;;;;;;;10.63;2.53;;;;;;;13.06;nan;100231.06;5076906;28;20183;-72
2021/09/24 04:18:22;;;;;;;15.67;2.73;;;;;;;13.10;nan;100238.78;5059383;28;20179;-72
2021/09/24 04:20:48;;;;;;;18.67;3.30;;;;;;;12.89;nan;100244.81;5060153;28;20206;-72
2021/09/24 04:23:14;;;;;;;15.80;2.87;;;;;;;12.86;nan;100251.25;5059922;28;20175;-73
2021/09/24 04:25:40;;;;;;;16.60;2.93;;;;;;;12.81;nan;100248.91;5060143;28;20672;-73
2021/09/24 04:28:06;;;;;;;22.77;3.27;;;;;;;12.84;nan;100247.81;5059736;28;20244;-73
2021/09/24 04:30:31;;;;;;;21.50;3.40;;;;;;;12.60;nan;100242.38;5059781;28;20641;-72
2021/09/24 04:32:56;;;;;;;24.70;3.97;;;;;;;12.52;nan;100256.31;5076361;28;20569;-72
2021/09/24 04:35:24;;;;;;;18.77;3.40;;;;;;;12.61;nan;100257.47;5059283;28;20171;-73
2021/09/24 04:37:49;;;;;;;22.80;4.20;;;;;;;12.56;nan;100262.31;5059137;28;20600;-72
2021/09/24 04:40:14;;;;;;;16.00;2.90;;;;;;;12.51;nan;100264.44;5058867;28;20281;-72
2021/09/24 04:42:40;;;;;;;19.63;3.40;;;;;;;12.36;nan;100262.84;5058256;28;20541;-72
2021/09/24 04:45:05;;;;;;;26.37;3.87;;;;;;;12.57;nan;100274.72;5058069;28;20178;-72
2021/09/24 04:47:31;;;;;;;22.93;3.63;;;;;;;12.63;nan;100265.41;5058080;28;20205;-72
2021/09/24 04:49:56;;;;;;;23.93;3.93;;;;;;;12.66;nan;100263.38;5076191;28;20178;-71
2021/09/24 04:52:21;;;;;;;17.20;3.73;;;;;;;12.63;nan;100278.78;5076021;28;20175;-72
2021/09/24 04:54:48;;;;;;;20.67;3.40;;;;;;;12.59;nan;100266.59;5077040;28;20178;-72
2021/09/24 04:57:13;;;;;;;18.77;4.00;;;;;;;12.59;nan;100280.81;5078103;28;20222;-72
2021/09/24 04:59:38;;;;;;;25.60;4.03;;;;;;;12.50;nan;100286.81;5069668;28;20226;-71
2021/09/24 05:02:04;;;;;;;18.03;3.07;;;;;;;12.56;nan;100281.03;5077056;28;20636;-71
2021/09/24 05:04:29;;;;;;;22.33;3.93;;;;;;;12.49;nan;100288.66;5087122;28;20186;-72
2021/09/24 05:06:54;;;;;;;26.60;6.03;;;;;;;12.56;nan;100283.72;5059850;28;20207;-72
2021/09/24 05:09:20;;;;;;;29.97;4.07;;;;;;;12.55;nan;100289.19;5060676;28;20180;-72
2021/09/24 05:11:45;;;;;;;26.50;4.27;;;;;;;12.61;nan;100289.59;5076796;28;20178;-73
2021/09/24 05:14:10;;;;;;;16.83;3.17;;;;;;;12.62;nan;100290.47;5058709;28;20190;-73
2021/09/24 05:16:36;;;;;;;23.77;3.73;;;;;;;12.45;nan;100287.16;5075922;28;20599;-72
2021/09/24 05:19:01;;;;;;;17.43;3.33;;;;;;;12.56;nan;100297.09;5075559;28;20232;-72
2021/09/24 05:21:26;;;;;;;25.50;4.57;;;;;;;12.36;nan;100285.13;5040630;28;20177;-72
2021/09/24 05:23:51;;;;;;;20.83;3.30;;;;;;;12.26;nan;100291.19;5075153;28;20655;-72
2021/09/24 05:26:17;;;;;;;21.57;3.10;;;;;;;12.26;nan;100296.53;5057249;28;20202;-73
2021/09/24 05:28:42;;;;;;;25.03;3.83;;;;;;;12.15;nan;100294.59;5075441;28;20177;-72
2021/09/24 05:31:07;;;;;;;27.60;3.27;;;;;;;12.16;nan;100294.50;5057971;28;20175;-73
2021/09/24 05:33:33;;;;;;;23.17;3.47;;;;;;;12.11;nan;100301.13;5075890;28;20178;-73
2021/09/24 05:35:58;;;;;;;29.07;3.70;;;;;;;12.02;nan;100302.59;5057898;28;20202;-73
2021/09/24 05:38:23;;;;;;;24.87;3.03;;;;;;;11.96;nan;100297.66;5040923;28;20183;-72
2021/09/24 05:40:49;;;;;;;19.67;2.70;;;;;;;11.97;nan;100299.38;5075343;28;20257;-71
2021/09/24 05:43:14;;;;;;;23.73;3.00;;;;;;;11.92;nan;100311.34;5057224;28;20225;-72
2021/09/24 05:45:39;;;;;;;15.00;2.63;;;;;;;12.03;nan;100306.13;5057221;28;20198;-72
2021/09/24 05:48:05;;;;;;;17.47;3.00;;;;;;;12.07;nan;100311.16;5057313;28;20553;-73
2021/09/24 05:50:31;;;;;;;35.70;4.57;;;;;;;12.13;nan;100310.75;5040633;28;20257;-72
2021/09/24 05:52:58;;;;;;;24.27;3.20;;;;;;;12.31;nan;100321.19;5040547;28;20183;-72
2021/09/24 05:55:23;;;;;;;18.73;3.03;;;;;;;12.52;nan;100317.88;5040117;28;20292;-73
2021/09/24 05:57:51;;;;;;;19.57;3.20;;;;;;;12.60;nan;100308.44;5074482;28;20175;-72
2021/09/24 06:00:19;;;;;;;13.97;2.73;;;;;;;12.65;nan;100314.38;5056488;28;20713;-72
2021/09/24 06:02:45;;;;;;;11.97;2.70;;;;;;;12.83;nan;100313.06;5040026;28;20209;-72
2021/09/24 06:05:11;;;;;;;18.57;2.67;;;;;;;12.87;nan;100306.53;5056646;28;20171;-73
2021/09/24 06:07:36;;;;;;;17.47;3.33;;;;;;;13.02;nan;100299.25;5056957;28;20179;-72
2021/09/24 06:10:03;;;;;;;14.47;2.90;;;;;;;13.12;nan;100302.97;5056649;28;20652;-73
2021/09/24 06:12:28;;;;;;;12.33;2.37;;;;;;;13.05;nan;100299.88;5056010;28;20189;-73
2021/09/24 06:14:57;;;;;;;13.27;2.43;;;;;;;13.10;nan;100300.41;5073563;28;20179;-73
2021/09/24 06:17:22;;;;;;;18.50;3.50;;;;;;;13.22;nan;100308.53;5056056;28;20664;-73
2021/09/24 06:19:47;;;;;;;16.27;2.50;;;;;;;13.37;nan;100299.38;5056693;28;20305;-73
2021/09/24 06:22:12;;;;;;;25.10;2.80;;;;;;;13.42;nan;100292.75;5074637;28;20186;-72
2021/09/24 06:24:38;;;;;;;20.17;3.27;;;;;;;13.51;nan;100288.53;5057091;28;20277;-73
2021/09/24 06:27:10;;;;;;;14.93;3.03;;;;;;;13.54;nan;100295.47;5074736;28;20274;-73
2021/09/24 06:29:35;;;;;;;12.77;2.53;;;;;;;13.65;nan;100292.84;5074641;28;20190;-73
2021/09/24 06:32:00;;;;;;;16.30;2.93;;;;;;;13.56;nan;100281.00;5075385;28;20637;-72
2021/09/24 06:34:26;;;;;;;14.00;2.50;;;;;;;13.65;nan;100285.66;5074842;28;20167;-73
2021/09/24 06:36:51;;;;;;;16.27;3.97;;;;;;;13.56;nan;100288.19;5075116;28;20202;-72
2021/09/24 06:39:16;;;;;;;23.40;3.30;;;;;;;13.51;nan;100282.31;5056976;28;20205;-72
2021/09/24 06:41:42;;;;;;;15.03;2.63;;;;;;;13.40;nan;100261.66;5075103;28;20179;-71
2021/09/24 06:44:07;;;;;;;19.17;3.77;;;;;;;13.53;nan;100283.06;5056952;28;20174;-72
2021/09/24 06:46:33;;;;;;;16.97;3.17;;;;;;;13.61;nan;100302.97;5075161;28;20194;-72
2021/09/24 06:48:58;;;;;;;14.53;3.03;;;;;;;13.55;nan;100287.31;5075800;28;20179;-72
2021/09/24 06:51:23;;;;;;;16.90;2.97;;;;;;;13.71;nan;100297.75;5057147;28;20183;-71
2021/09/24 06:53:49;;;;;;;18.13;3.20;;;;;;;13.61;nan;100302.09;5057282;28;20189;-72
2021/09/24 06:56:14;;;;;;;16.53;2.53;;;;;;;13.74;nan;100313.63;5074531;28;20606;-73
2021/09/24 06:58:39;;;;;;;14.50;3.17;;;;;;;13.75;nan;100307.28;5057036;28;20179;-72
2021/09/24 07:01:05;;;;;;;15.53;2.77;;;;;;;13.76;nan;100301.00;5075211;28;20676;-72
2021/09/24 07:03:30;;;;;;;18.63;3.87;;;;;;;13.77;nan;100306.22;5057138;28;20174;-72
2021/09/24 07:05:55;;;;;;;18.70;3.27;;;;;;;13.90;nan;100303.47;5057004;28;20191;-72
2021/09/24 07:08:20;;;;;;;19.23;2.40;;;;;;;13.83;nan;100301.38;5074681;28;20233;-72
2021/09/24 07:10:46;;;;;;;18.63;3.17;;;;;;;13.86;nan;100312.72;5056378;28;20195;-72
2021/09/24 07:13:11;;;;;;;17.53;2.87;;;;;;;14.02;nan;100307.06;5056153;28;20178;-72
2021/09/24 07:15:37;;;;;;;20.40;3.93;;;;;;;14.04;nan;100303.28;5056151;28;20191;-72
2021/09/24 07:18:02;;;;;;;18.13;3.60;;;;;;;14.09;nan;100309.16;5073738;28;20681;-72
2021/09/24 07:20:28;;;;;;;24.63;3.87;;;;;;;14.41;nan;100313.91;5074056;28;20266;-72
2021/09/24 07:22:53;;;;;;;16.57;3.30;;;;;;;14.27;nan;100306.06;5074218;28;20185;-72
2021/09/24 07:25:19;;;;;;;21.63;3.50;;;;;;;14.34;nan;100299.25;5073710;28;20175;-72
2021/09/24 07:27:44;;;;;;;24.97;3.67;;;;;;;14.59;nan;100317.91;5073299;28;20178;-72
2021/09/24 07:30:10;;;;;;;23.93;4.33;;;;;;;14.54;nan;100319.22;5055754;28;20537;-72
2021/09/24 07:32:35;;;;;;;16.77;3.00;;;;;;;14.53;nan;100299.59;5073007;28;20183;-72
2021/09/24 07:35:00;;;;;;;19.63;3.93;;;;;;;14.47;nan;100321.50;5073908;28;20181;-72
2021/09/24 07:37:26;;;;;;;16.47;2.93;;;;;;;14.52;nan;100323.88;5054805;28;20199;-71
2021/09/24 07:39:51;;;;;;;25.17;3.93;;;;;;;14.87;nan;100323.81;5055966;28;20549;-72
2021/09/24 07:42:17;;;;;;;20.70;3.90;;;;;;;14.86;nan;100319.38;5073727;28;20170;-71
2021/09/24 07:44:42;;;;;;;24.87;4.40;;;;;;;15.27;nan;100327.72;5073893;28;20698;-73
2021/09/24 07:47:07;;;;;;;14.27;3.43;;;;;;;15.31;nan;100322.94;5055409;28;20222;-71
2021/09/24 07:49:33;;;;;;;21.27;4.23;;;;;;;15.29;nan;100325.75;5073814;28;20186;-71
2021/09/24 07:51:58;;;;;;;22.37;4.50;;;;;;;15.27;nan;100318.81;5055815;28;20177;-71
2021/09/24 07:54:24;;;;;;;19.93;3.33;;;;;;;15.14;nan;100297.41;5073472;28;20174;-72
2021/09/24 07:56:50;;;;;;;21.30;4.60;;;;;;;15.16;nan;100294.59;5073306;28;20206;-72
2021/09/24 07:59:15;;;;;;;20.43;3.40;;;;;;;15.29;nan;100322.22;5074092;28;20171;-72
2021/09/24 08:01:41;;;;;;;16.43;3.17;;;;;;;15.19;nan;100311.31;5074173;28;20175;-72
2021/09/24 08:04:06;;;;;;;18.03;3.13;;;;;;;15.24;nan;100308.28;5074037;28;20175;-70
2021/09/24 08:06:31;;;;;;;28.37;4.47;;;;;;;15.59;nan;100324.25;5056116;28;20197;-72
2021/09/24 08:08:56;;;;;;;29.10;4.47;;;;;;;15.51;nan;100302.50;5073965;28;20236;-72
2021/09/24 08:11:22;;;;;;;20.63;3.43;;;;;;;15.59;nan;100310.81;5072966;28;20175;-71
2021/09/24 08:13:47;;;;;;;20.90;3.70;;;;;;;15.63;nan;100315.00;5072728;28;20171;-72
2021/09/24 08:16:13;;;;;;;15.23;4.07;;;;;;;15.51;nan;100316.78;5072713;28;20187;-72
2021/09/24 08:18:38;;;;;;;20.93;3.20;;;;;;;15.38;nan;100301.78;5072235;28;20636;-72
2021/09/24 08:21:04;;;;;;;19.40;3.50;;;;;;;15.40;nan;100298.00;5073508;28;20195;-72
2021/09/24 08:23:30;;;;;;;26.70;4.07;;;;;;;15.74;nan;100304.19;5073584;28;20190;-71
2021/09/24 08:25:55;;;;;;;20.70;3.93;;;;;;;15.50;nan;100300.78;5073679;28;20195;-72
2021/09/24 08:28:20;;;;;;;19.67;4.53;;;;;;;15.45;nan;100297.63;5074190;28;20179;-71
2021/09/24 08:30:46;;;;;;;28.73;3.30;;;;;;;15.57;nan;100297.47;5074113;28;20202;-71
2021/09/24 08:33:14;;;;;;;17.70;3.97;;;;;;;15.97;nan;100312.16;5073605;28;20203;-72
2021/09/24 08:35:40;;;;;;;18.03;3.90;;;;;;;16.04;nan;100302.63;5056066;28;20215;-72
2021/09/24 08:38:05;;;;;;;17.97;3.80;;;;;;;16.02;nan;100288.44;5074815;28;20691;-72
2021/09/24 08:40:31;;;;;;;22.33;4.10;;;;;;;16.08;nan;100304.06;5059808;28;20202;-72
2021/09/24 08:42:57;;;;;;;16.57;3.60;;;;;;;16.00;nan;100285.88;5077953;28;20171;-71
2021/09/24 08:45:26;;;;;;;14.83;3.30;;;;;;;16.02;nan;100299.22;5077947;28;20225;-71
2021/09/24 08:47:53;;;;;;;22.83;3.97;;;;;;;16.31;nan;100310.19;5077294;28;20684;-72
2021/09/24 08:50:19;;;;;;;16.40;3.77;;;;;;;16.34;nan;100302.69;5077323;28;20216;-71
2021/09/24 08:52:44;;;;;;;14.20;3.57;;;;;;;16.67;nan;100317.00;5078694;28;20651;-71
2021/09/24 08:55:11;;;;;;;19.80;3.47;;;;;;;16.71;nan;100313.03;5060067;28;20183;-71
2021/09/24 08:57:37;;;;;;;18.63;3.57;;;;;;;16.58;nan;100300.59;5079251;28;20621;-71
2021/09/24 09:00:05;;;;;;;18.73;3.47;;;;;;;16.70;nan;100293.31;5060024;28;20265;-72
2021/09/24 09:02:50;;;;;;;20.63;3.40;;;;;;;16.73;nan;100311.94;5078386;28;20494;-71
2021/09/24 09:05:15;;;;;;;19.40;3.53;;;;;;;17.07;nan;100325.16;5059464;28;20176;-72
2021/09/24 09:07:41;;;;;;;21.50;3.83;;;;;;;17.23;nan;100328.22;5059471;28;20571;-71
2021/09/24 09:10:06;;;;;;;22.00;4.17;;;;;;;17.23;nan;100314.75;5077847;28;20205;-71
2021/09/24 09:12:31;;;;;;;18.90;4.17;;;;;;;16.66;nan;100291.88;5059721;28;20187;-71
2021/09/24 09:15:06;;;;;;;18.63;3.37;;;;;;;16.66;nan;100301.81;5078064;28;20620;-71
2021/09/24 09:17:40;;;;;;;12.97;3.53;;;;;;;16.68;nan;100314.16;5078813;28;20190;-71
2021/09/24 09:20:16;;;;;;;19.50;4.40;;;;;;;16.91;nan;100325.66;5059979;28;20629;-72
2021/09/24 09:22:44;;;;;;;18.40;3.47;;;;;;;16.95;nan;100294.75;5077066;28;20189;-71
2021/09/24 09:25:26;;;;;;;26.17;3.53;;;;;;;17.02;nan;100301.28;5057764;28;20244;-72
2021/09/24 09:27:53;;;;;;;22.53;3.60;;;;;;;17.17;nan;100299.97;5075969;28;20178;-71
2021/09/24 09:30:19;;;;;;;21.00;4.07;;;;;;;17.08;nan;100276.47;5076073;28;20187;-72
2021/09/24 09:33:03;;;;;;;15.33;3.30;;;;;;;16.91;nan;100281.69;5058199;28;20179;-72
2021/09/24 09:35:29;;;;;;;15.90;2.90;;;;;;;17.52;nan;100298.66;5075707;28;20278;-72
2021/09/24 09:37:56;;;;;;;16.60;3.67;;;;;;;17.57;nan;100291.00;5040784;28;20179;-72
2021/09/24 09:40:21;;;;;;;22.63;3.60;;;;;;;18.18;nan;100290.75;5057083;28;20199;-72
2021/09/24 09:42:49;;;;;;;18.87;4.10;;;;;;;18.81;nan;100301.94;5076480;28;20163;-71
2021/09/24 09:45:16;;;;;;;20.80;4.13;;;;;;;18.57;nan;100279.91;5076550;28;20224;-71
2021/09/24 09:47:45;;;;;;;13.93;3.03;;;;;;;18.31;nan;100280.53;5075817;28;20589;-72
2021/09/24 09:50:13;;;;;;;22.67;3.47;;;;;;;17.81;nan;100256.38;5057196;28;20545;-72
2021/09/24 09:53:04;;;;;;;20.70;5.37;;;;;;;17.81;nan;100253.69;5074985;28;20192;-72
2021/09/24 09:55:33;;;;;;;19.50;4.57;;;;;;;17.37;nan;100278.44;5056753;28;20225;-72
2021/09/24 09:58:00;;;;;;;23.00;3.53;;;;;;;17.41;nan;100258.28;5075495;28;20183;-72
2021/09/24 10:00:31;;;;;;;18.63;3.63;;;;;;;17.24;nan;100273.28;5059373;28;20738;-72
2021/09/24 10:03:06;;;;;;;25.57;3.83;;;;;;;17.60;nan;100287.16;5083589;28;20171;-72
2021/09/24 10:05:41;;;;;;;17.13;3.67;;;;;;;17.85;nan;100294.75;5083593;28;20273;-72
2021/09/24 10:08:32;;;;;;;19.57;4.93;;;;;;;17.78;nan;100297.16;5083595;28;20212;-72
2021/09/24 10:11:13;;;;;;;21.30;3.77;;;;;;;17.88;nan;100291.78;5081395;28;20183;-73
2021/09/24 10:13:55;;;;;;;14.67;3.83;;;;;;;18.09;nan;100288.94;5080405;28;20246;-73
2021/09/24 10:16:22;;;;;;;17.17;3.57;;;;;;;18.39;nan;100298.72;5078297;28;20556;-73
2021/09/24 10:18:48;;;;;;;13.10;3.23;;;;;;;18.25;nan;100310.84;5075723;28;20167;-73
2021/09/24 10:21:14;;;;;;;22.73;3.70;;;;;;;18.39;nan;100304.97;5058039;28;20202;-71
2021/09/24 10:23:39;;;;;;;23.30;3.50;;;;;;;18.05;nan;100284.81;5057512;28;20187;-72
2021/09/24 10:26:10;;;;;;;28.70;3.67;;;;;;;18.51;nan;100304.81;5075283;28;20194;-72
2021/09/24 10:28:38;;;;;;;21.97;3.87;;;;;;;17.97;nan;100277.44;5041390;28;20167;-71
2021/09/24 10:31:03;;;;;;;18.60;2.93;;;;;;;17.62;nan;100304.91;5075967;28;20625;-72
2021/09/24 10:33:50;;;;;;;18.60;3.63;;;;;;;17.97;nan;100304.44;5075861;28;20174;-71
2021/09/24 10:36:33;;;;;;;20.87;4.33;;;;;;;18.02;nan;100295.91;5074951;28;20194;-71
2021/09/24 10:38:59;;;;;;;16.63;3.50;;;;;;;18.77;nan;100324.88;5074797;28;20163;-73
2021/09/24 10:41:24;;;;;;;16.87;3.40;;;;;;;18.51;nan;100321.03;5056145;28;20198;-72
2021/09/24 10:43:52;;;;;;;21.90;4.00;;;;;;;18.89;nan;100318.28;5056690;28;20178;-71
2021/09/24 10:46:24;;;;;;;19.13;4.80;;;;;;;19.29;nan;100328.81;5055468;28;20191;-72
2021/09/24 10:49:12;;;;;;;16.23;3.00;;;;;;;18.35;nan;100287.34;5055739;28;20178;-72
2021/09/24 10:51:39;;;;;;;21.10;3.77;;;;;;;17.99;nan;100296.19;5056414;28;20340;-71
2021/09/24 10:54:20;;;;;;;20.87;3.97;;;;;;;18.00;nan;100309.53;5056536;28;20182;-70
2021/09/24 10:56:59;;;;;;;14.40;3.03;;;;;;;18.11;nan;100312.09;5073361;28;20210;-72
2021/09/24 10:59:29;;;;;;;18.03;3.20;;;;;;;17.71;nan;100271.72;5055668;28;20167;-72
2021/09/24 11:01:55;;;;;;;17.73;3.97;;;;;;;17.63;nan;100274.25;5055770;28;20163;-71
2021/09/24 11:04:40;;;;;;;15.37;3.10;;;;;;;18.21;nan;100320.22;5055573;28;20174;-72
2021/09/24 11:07:06;;;;;;;18.40;3.40;;;;;;;18.43;nan;100332.56;5056907;28;20281;-72
2021/09/24 11:09:31;;;;;;;28.33;4.40;;;;;;;18.70;nan;100330.00;5057180;28;20663;-72
2021/09/24 11:12:04;;;;;;;22.37;3.70;;;;;;;18.73;nan;100310.78;5074611;28;20170;-73
2021/09/24 11:14:31;;;;;;;18.90;3.57;;;;;;;18.82;nan;100333.38;5056906;28;20537;-71
2021/09/24 11:16:57;;;;;;;15.20;3.37;;;;;;;18.84;nan;100319.72;5074174;28;20230;-73
2021/09/24 11:19:46;;;;;;;22.23;3.43;;;;;;;19.12;nan;100339.56;5055750;28;20171;-73
2021/09/24 11:22:24;;;;;;;15.23;3.23;;;;;;;19.02;nan;100329.66;5073220;28;20688;-73
2021/09/24 11:24:59;;;;;;;22.90;3.33;;;;;;;18.10;nan;100304.13;5055636;28;20501;-73
2021/09/24 11:27:40;;;;;;;24.97;3.67;;;;;;;18.54;nan;100339.66;5072698;28;20273;-73
2021/09/24 11:30:05;;;;;;;19.50;3.97;;;;;;;18.52;nan;100336.25;5055157;28;20155;-75
2021/09/24 11:32:40;;;;;;;21.03;3.80;;;;;;;18.36;nan;100336.84;5073559;28;20170;-73